Time;durP1;ratioP1;P1;durP2;ratioP2;P2;SDS_P1;SDS_P2;PMS_P1;PMS_P2;Temp;Humidity;BMP_temperature;BMP_pressure;BME280_temperature;BME280_humidity;BME280_pressure;Samples;Min_cycle;Max_cycle;Signal;HPM_P1;HPM_P2
2023/05/24 00:00:31;;;;;;;5.70;3.70;;;;;;;10.25;86.17;95426.14;106570;1275;24231;-76
2023/05/24 00:03:20;;;;;;;6.40;3.30;;;;;;;10.26;85.88;95426.66;106627;1275;24085;-75
2023/05/24 00:05:49;;;;;;;3.70;3.10;;;;;;;10.25;85.81;95427.55;106682;1275;24387;-75
2023/05/24 00:08:17;;;;;;;11.90;3.20;;;;;;;10.22;85.52;95426.56;106708;1275;22535;-75
2023/05/24 00:10:45;;;;;;;6.10;2.50;;;;;;;10.19;85.34;95428.55;106613;1275;22515;-75
2023/05/24 00:13:14;;;;;;;3.60;2.50;;;;;;;10.22;85.72;95428.87;106598;1275;22525;-75
2023/05/24 00:15:42;;;;;;;5.10;2.60;;;;;;;10.17;85.83;95427.35;106565;1275;22510;-75
2023/05/24 00:18:10;;;;;;;7.00;2.50;;;;;;;10.18;86.32;95427.16;106598;1275;22527;-75
2023/05/24 00:20:38;;;;;;;4.50;2.50;;;;;;;10.25;86.06;95422.45;106680;1275;25794;-75
2023/05/24 00:23:08;;;;;;;3.30;2.30;;;;;;;10.31;85.68;95425.54;106614;1275;24214;-75
2023/05/24 00:25:36;;;;;;;5.40;2.50;;;;;;;10.23;84.99;95424.44;106698;1275;24196;-75
2023/05/24 00:28:04;;;;;;;5.10;2.80;;;;;;;10.13;85.62;95421.64;106572;1275;25373;-76
2023/05/24 00:30:33;;;;;;;8.60;2.50;;;;;;;10.08;85.61;95421.03;106620;1275;22646;-75
2023/05/24 00:33:01;;;;;;;6.00;2.40;;;;;;;10.07;85.65;95416.48;106597;1275;22514;-75
2023/05/24 00:35:30;;;;;;;4.90;3.20;;;;;;;10.10;85.92;95411.66;106580;1275;25455;-75
2023/05/24 00:37:58;;;;;;;8.90;2.30;;;;;;;10.10;85.38;95410.27;106557;1275;24196;-76
2023/05/24 00:40:27;;;;;;;5.90;2.30;;;;;;;10.10;85.34;95406.23;106636;1275;22639;-75
2023/05/24 00:42:55;;;;;;;15.20;3.80;;;;;;;10.11;85.65;95401.10;106570;1275;24384;-75
2023/05/24 00:45:23;;;;;;;4.10;2.50;;;;;;;10.10;85.18;95400.08;106665;1275;22999;-75
2023/05/24 00:47:52;;;;;;;2.20;2.00;;;;;;;10.08;84.98;95400.46;106588;1275;22538;-75
2023/05/24 00:50:21;;;;;;;5.10;2.50;;;;;;;10.10;85.43;95400.24;106578;1275;22544;-75
2023/05/24 00:52:50;;;;;;;6.70;2.60;;;;;;;10.05;85.02;95396.31;106671;1275;22517;-75
2023/05/24 00:55:19;;;;;;;7.40;3.10;;;;;;;9.91;85.59;95393.42;106635;1275;25319;-76
2023/05/24 00:57:51;;;;;;;4.80;2.50;;;;;;;9.85;85.64;95397.23;106669;1275;22520;-75
2023/05/24 01:00:19;;;;;;;7.90;2.90;;;;;;;9.84;85.66;95396.73;106628;1275;22520;-75
2023/05/24 01:02:50;;;;;;;5.90;3.00;;;;;;;9.83;85.87;95400.96;106642;1275;22514;-75
2023/05/24 01:05:19;;;;;;;5.50;2.70;;;;;;;9.87;85.93;95395.77;106622;1275;22543;-75
2023/05/24 01:08:09;;;;;;;4.80;2.50;;;;;;;9.87;85.59;95394.73;106481;1275;24285;-75
2023/05/24 01:10:46;;;;;;;5.60;3.20;;;;;;;9.85;85.95;95395.30;106586;1275;22510;-75
2023/05/24 01:13:34;;;;;;;6.10;2.80;;;;;;;9.79;86.23;95400.68;106655;1275;22514;-75
2023/05/24 01:16:21;;;;;;;4.00;2.80;;;;;;;9.73;85.80;95401.50;106608;1275;22510;-75
2023/05/24 01:18:55;;;;;;;4.40;2.50;;;;;;;9.70;85.66;95409.79;106641;1275;22643;-75
2023/05/24 01:21:47;;;;;;;;;;;;;;;9.58;86.08;95409.49;106652;1275;22488;-75
2023/05/24 01:24:38;;;;;;;6.40;2.20;;;;;;;9.51;86.01;95408.55;106658;1275;22595;-75
2023/05/24 01:27:14;;;;;;;4.80;2.60;;;;;;;9.46;85.64;95411.63;106769;1275;22529;-75
2023/05/24 01:29:43;;;;;;;4.20;2.90;;;;;;;9.47;86.02;95408.80;106168;1275;674003;-75
2023/05/24 01:32:11;;;;;;;7.10;2.90;;;;;;;9.45;85.99;95415.52;106587;1275;25217;-75
2023/05/24 01:34:39;;;;;;;10.60;2.80;;;;;;;9.41;86.19;95413.64;106547;1275;25192;-75
2023/05/24 01:37:08;;;;;;;4.90;2.50;;;;;;;9.42;86.47;95410.83;106658;1275;25268;-75
2023/05/24 01:39:40;;;;;;;4.40;2.60;;;;;;;9.43;86.60;95415.55;106661;1275;22533;-75
2023/05/24 01:42:21;;;;;;;6.50;2.70;;;;;;;9.43;86.72;95417.65;106684;1275;22938;-75
2023/05/24 01:45:10;;;;;;;4.20;2.70;;;;;;;9.43;86.42;95418.00;106605;1275;24380;-75
2023/05/24 01:47:56;;;;;;;4.70;2.70;;;;;;;9.41;86.31;95420.15;106628;1275;22759;-75
2023/05/24 01:50:30;;;;;;;3.40;2.40;;;;;;;9.40;86.32;95420.86;106622;1275;22636;-75
2023/05/24 01:53:05;;;;;;;3.00;2.30;;;;;;;9.40;86.15;95416.48;106669;1275;25399;-75
2023/05/24 01:55:36;;;;;;;2.20;2.00;;;;;;;9.37;86.03;95416.17;106642;1276;25408;-75
2023/05/24 01:58:06;;;;;;;7.20;2.50;;;;;;;9.33;86.03;95417.64;106565;1275;22524;-75
2023/05/24 02:00:35;;;;;;;6.20;2.80;;;;;;;9.31;86.02;95419.44;106568;1272;25439;-75
2023/05/24 02:03:05;;;;;;;4.50;2.40;;;;;;;9.25;86.86;95413.39;106627;1275;25465;-75
2023/05/24 02:05:35;;;;;;;4.00;2.50;;;;;;;9.24;86.61;95413.92;106633;1275;24344;-75
2023/05/24 02:08:05;;;;;;;4.30;2.10;;;;;;;9.27;86.77;95408.80;106670;1275;22517;-75
2023/05/24 02:10:33;;;;;;;3.50;2.30;;;;;;;9.28;86.88;95407.89;106646;1275;24358;-75
2023/05/24 02:13:01;;;;;;;3.80;2.10;;;;;;;9.36;87.10;95406.52;106597;1275;24691;-75
2023/05/24 02:15:29;;;;;;;4.60;2.40;;;;;;;9.36;86.45;95403.20;106668;1275;22834;-75
2023/05/24 02:18:00;;;;;;;4.40;2.30;;;;;;;9.36;86.53;95396.17;106614;1275;22776;-76
2023/05/24 02:20:29;;;;;;;3.40;2.50;;;;;;;9.44;86.96;95395.68;106678;1275;22530;-75
2023/05/24 02:22:59;;;;;;;10.00;6.40;;;;;;;9.50;87.18;95397.33;106621;1275;22631;-75
2023/05/24 02:25:27;;;;;;;8.90;3.50;;;;;;;9.60;87.66;95397.86;106487;1275;25465;-75
2023/05/24 02:27:55;;;;;;;5.80;2.30;;;;;;;9.61;86.77;95395.39;106588;1275;22510;-75
2023/05/24 02:30:23;;;;;;;6.30;2.30;;;;;;;9.62;86.82;95393.96;106635;1275;23884;-76
2023/05/24 02:32:52;;;;;;;5.60;2.30;;;;;;;9.67;86.76;95390.53;106615;1275;22516;-75
2023/05/24 02:35:20;;;;;;;2.90;2.30;;;;;;;9.73;86.65;95388.67;106674;1275;22641;-76
2023/05/24 02:37:49;;;;;;;4.70;2.30;;;;;;;9.77;86.37;95386.30;106572;1275;22649;-76
2023/05/24 02:40:17;;;;;;;4.70;2.20;;;;;;;9.76;85.88;95389.48;106579;1275;22525;-75
2023/05/24 02:42:45;;;;;;;5.60;2.50;;;;;;;9.73;85.95;95387.77;106497;1275;22637;-75
2023/05/24 02:45:13;;;;;;;8.70;2.50;;;;;;;9.73;86.44;95383.38;106574;1275;25249;-75
2023/05/24 02:47:41;;;;;;;5.60;2.60;;;;;;;9.81;87.25;95382.55;106575;1275;22557;-75
2023/05/24 02:50:10;;;;;;;3.50;2.30;;;;;;;9.88;87.50;95384.35;106505;1275;25392;-75
2023/05/24 02:52:38;;;;;;;2.80;2.10;;;;;;;9.90;86.68;95385.19;106558;1275;24246;-76
2023/05/24 02:55:07;;;;;;;4.90;2.90;;;;;;;9.92;86.31;95379.17;106624;1275;24353;-75
2023/05/24 02:57:37;;;;;;;2.90;2.60;;;;;;;9.95;86.41;95381.57;106640;1275;24222;-76
2023/05/24 03:00:08;;;;;;;9.20;2.70;;;;;;;10.01;86.78;95380.06;106666;1275;25322;-75
2023/05/24 03:02:39;;;;;;;3.00;2.80;;;;;;;10.10;87.27;95376.36;106618;1275;24212;-75
2023/05/24 03:05:08;;;;;;;5.20;3.50;;;;;;;10.16;87.16;95378.00;106560;1275;22520;-75
2023/05/24 03:07:36;;;;;;;6.20;3.70;;;;;;;10.22;86.73;95371.89;106549;1275;25457;-75
2023/05/24 03:10:07;;;;;;;7.20;3.90;;;;;;;10.23;86.11;95368.02;106633;1275;24358;-76
2023/05/24 03:12:35;;;;;;;4.70;3.80;;;;;;;10.26;86.32;95368.12;106594;1275;22575;-76
2023/05/24 03:15:04;;;;;;;4.40;3.60;;;;;;;10.27;86.43;95363.54;106586;1275;25328;-76
2023/05/24 03:17:32;;;;;;;7.20;3.80;;;;;;;10.30;86.56;95359.27;106620;1262;22591;-75
2023/05/24 03:20:00;;;;;;;4.10;3.70;;;;;;;10.31;86.47;95357.67;106589;1275;25394;-75
2023/05/24 03:22:30;;;;;;;5.70;4.30;;;;;;;10.32;86.54;95352.20;106631;1275;22521;-76
2023/05/24 03:24:59;;;;;;;5.70;4.40;;;;;;;10.34;86.63;95351.98;106659;1275;24442;-76
2023/05/24 03:27:27;;;;;;;5.80;4.10;;;;;;;10.36;86.76;95345.23;106592;1275;22563;-76
2023/05/24 03:29:55;;;;;;;6.10;3.80;;;;;;;10.37;86.45;95340.48;106588;1275;22513;-75
2023/05/24 03:32:26;;;;;;;6.60;3.70;;;;;;;10.38;86.22;95336.06;106522;1275;22520;-76
2023/05/24 03:34:56;;;;;;;6.90;4.10;;;;;;;10.43;86.48;95337.02;106565;1275;24318;-76
2023/05/24 03:37:25;;;;;;;7.40;4.10;;;;;;;10.47;86.67;95333.60;106605;1275;22520;-76
2023/05/24 03:39:53;;;;;;;10.90;4.70;;;;;;;10.52;86.28;95335.05;106632;1275;22546;-76
2023/05/24 03:42:37;;;;;;;;;;;;;;;10.58;86.70;95333.49;106622;1275;22609;-76
2023/05/24 03:45:07;;;;;;;4.30;3.30;;;;;;;10.64;86.80;95338.31;106621;1275;22513;-76
2023/05/24 03:47:35;;;;;;;8.90;4.20;;;;;;;10.72;86.47;95334.77;106526;1275;22632;-76
2023/05/24 03:50:05;;;;;;;9.50;4.50;;;;;;;10.74;87.07;95331.74;106650;1275;22524;-75
2023/05/24 03:52:33;;;;;;;8.20;4.70;;;;;;;10.84;87.30;95328.52;106680;1263;24330;-76
2023/05/24 03:55:01;;;;;;;7.60;4.40;;;;;;;10.92;86.96;95324.09;106586;1275;22528;-75
2023/05/24 03:57:29;;;;;;;8.40;3.90;;;;;;;11.02;86.94;95322.96;106612;1275;22524;-76
2023/05/24 03:59:59;;;;;;;9.00;3.80;;;;;;;11.14;86.97;95325.14;106581;1275;24352;-76
2023/05/24 04:02:27;;;;;;;6.70;3.80;;;;;;;11.21;86.61;95326.89;106643;1275;25453;-76
2023/05/24 04:04:56;;;;;;;7.30;4.40;;;;;;;11.28;86.78;95329.02;106714;1275;22515;-76
2023/05/24 04:07:24;;;;;;;7.20;3.70;;;;;;;11.44;86.71;95331.95;106592;1275;22970;-76
2023/05/24 04:09:53;;;;;;;8.00;3.50;;;;;;;11.46;85.78;95335.05;106613;1275;22724;-76
2023/05/24 04:12:21;;;;;;;6.10;3.80;;;;;;;11.52;86.12;95335.09;106705;1275;22625;-76
2023/05/24 04:14:50;;;;;;;4.70;3.80;;;;;;;11.65;86.19;95335.77;106604;1275;24380;-76
2023/05/24 04:17:18;;;;;;;5.20;3.50;;;;;;;11.70;85.56;95335.30;106760;1275;22615;-76
2023/05/24 04:19:47;;;;;;;7.50;3.90;;;;;;;11.78;85.81;95333.50;106701;1275;22548;-76
2023/05/24 04:22:16;;;;;;;6.80;4.70;;;;;;;11.93;85.88;95336.29;106601;1275;22779;-75
2023/05/24 04:24:45;;;;;;;6.40;4.10;;;;;;;12.10;85.85;95334.75;106616;1275;25468;-75
2023/05/24 04:27:13;;;;;;;7.00;3.60;;;;;;;12.21;84.31;95337.60;106624;1275;25403;-76
2023/05/24 04:29:48;;;;;;;12.30;4.00;;;;;;;12.17;83.81;95340.73;106685;1275;24203;-76
2023/05/24 04:32:16;;;;;;;7.20;3.80;;;;;;;12.17;83.80;95338.62;106768;1275;24478;-76
2023/05/24 04:34:45;;;;;;;5.90;3.60;;;;;;;12.21;83.91;95341.52;106575;1275;25585;-76
2023/05/24 04:37:15;;;;;;;5.10;3.60;;;;;;;12.32;84.13;95343.63;106606;1275;24196;-76
2023/05/24 04:39:45;;;;;;;7.20;4.00;;;;;;;12.45;83.88;95347.13;106709;1275;22531;-76
2023/05/24 04:42:14;;;;;;;5.80;3.70;;;;;;;12.52;82.83;95347.44;106643;1275;22557;-76
2023/05/24 04:44:43;;;;;;;5.90;3.60;;;;;;;12.59;82.87;95350.44;106609;1275;22632;-76
2023/05/24 04:47:13;;;;;;;6.40;4.50;;;;;;;12.65;82.84;95353.59;106633;1275;22728;-76
2023/05/24 04:49:41;;;;;;;10.90;5.40;;;;;;;12.73;83.08;95354.05;106554;1275;24085;-76
2023/05/24 04:52:09;;;;;;;16.60;7.40;;;;;;;12.78;82.53;95353.55;106616;1275;25320;-76
2023/05/24 04:54:37;;;;;;;11.80;7.40;;;;;;;12.83;82.79;95355.35;106680;1275;22931;-76
2023/05/24 04:57:06;;;;;;;10.10;6.40;;;;;;;12.84;82.61;95358.29;106661;1275;25347;-76
2023/05/24 04:59:34;;;;;;;9.10;5.70;;;;;;;12.85;82.53;95353.87;106577;1275;24336;-76
2023/05/24 05:02:02;;;;;;;8.20;4.80;;;;;;;12.87;82.81;95352.74;106686;1275;22777;-76
2023/05/24 05:04:31;;;;;;;8.50;5.90;;;;;;;12.87;82.47;95356.45;106545;1275;22522;-76
2023/05/24 05:06:59;;;;;;;9.20;5.50;;;;;;;12.90;82.48;95361.45;106619;1275;25246;-76
2023/05/24 05:09:27;;;;;;;9.20;5.70;;;;;;;12.99;82.86;95360.64;106598;1275;25387;-76
2023/05/24 05:11:55;;;;;;;9.30;5.30;;;;;;;13.08;83.01;95358.08;106582;1275;22826;-76
2023/05/24 05:14:23;;;;;;;8.30;5.20;;;;;;;13.16;83.28;95359.92;106618;1272;22638;-78
2023/05/24 05:16:52;;;;;;;9.70;5.90;;;;;;;13.25;83.33;95358.42;106599;1275;24244;-80
2023/05/24 05:19:20;;;;;;;13.90;6.40;;;;;;;13.33;83.36;95358.70;106554;1275;25147;-77
2023/05/24 05:21:48;;;;;;;9.80;6.60;;;;;;;13.40;83.33;95357.21;106724;1275;25501;-78
2023/05/24 05:24:17;;;;;;;9.50;6.20;;;;;;;13.50;83.01;95356.56;106592;1275;24442;-78
2023/05/24 05:26:46;;;;;;;11.00;5.70;;;;;;;13.58;82.45;95357.34;106656;1275;22515;-79
2023/05/24 05:29:14;;;;;;;6.50;4.30;;;;;;;13.68;82.50;95357.17;106681;1275;22533;-78
2023/05/24 05:31:43;;;;;;;11.30;6.50;;;;;;;13.79;82.45;95359.09;106674;1275;25402;-78
2023/05/24 05:34:11;;;;;;;6.00;4.10;;;;;;;13.90;82.14;95361.73;106633;1275;24192;-78
2023/05/24 05:36:41;;;;;;;8.20;3.60;;;;;;;13.98;81.88;95361.95;106655;1275;22514;-78
2023/05/24 05:39:09;;;;;;;5.80;3.70;;;;;;;14.09;81.36;95362.45;106664;1275;23887;-78
2023/05/24 05:41:39;;;;;;;4.00;3.60;;;;;;;14.20;81.00;95368.78;106679;1275;22514;-78
2023/05/24 05:44:08;;;;;;;7.30;4.50;;;;;;;14.33;80.91;95371.30;106610;1275;25496;-78
2023/05/24 05:46:38;;;;;;;7.90;4.00;;;;;;;14.48;80.46;95362.09;106705;1275;22524;-78
2023/05/24 05:49:06;;;;;;;6.30;4.10;;;;;;;14.64;79.85;95365.93;106625;1275;25499;-79
2023/05/24 05:51:35;;;;;;;4.90;3.60;;;;;;;14.75;79.37;95368.36;106577;1276;22524;-78
2023/05/24 05:54:04;;;;;;;7.40;3.30;;;;;;;14.89;78.65;95371.52;106598;1275;26599;-77
2023/05/24 05:56:38;;;;;;;5.00;3.40;;;;;;;15.01;78.50;95371.95;106613;1275;22518;-70
2023/05/24 05:59:06;;;;;;;11.60;5.30;;;;;;;15.13;78.96;95378.71;106754;1275;22616;-75
2023/05/24 06:01:34;;;;;;;13.10;4.80;;;;;;;15.22;78.46;95385.30;106499;1275;22516;-76
2023/05/24 06:04:02;;;;;;;14.30;5.30;;;;;;;15.25;76.78;95386.23;106495;1270;23873;-71
2023/05/24 06:06:31;;;;;;;9.30;4.40;;;;;;;15.26;76.81;95383.52;106665;1275;22589;-77
2023/05/24 06:09:00;;;;;;;9.90;4.70;;;;;;;15.31;75.88;95387.38;106604;1275;22523;-77
2023/05/24 06:11:28;;;;;;;6.90;3.90;;;;;;;15.44;75.20;95382.45;106465;1257;24050;-73
2023/05/24 06:13:57;;;;;;;9.20;4.20;;;;;;;15.61;74.67;95385.99;106415;1275;22788;-76
2023/05/24 06:16:25;;;;;;;5.30;3.80;;;;;;;15.81;75.01;95384.83;106601;1275;26506;-74
2023/05/24 06:18:54;;;;;;;8.10;3.70;;;;;;;15.96;72.77;95387.02;106435;1275;24312;-76
2023/05/24 06:21:35;;;;;;;4.70;3.40;;;;;;;16.12;72.42;95390.06;106783;1266;22649;-76
2023/05/24 06:24:03;;;;;;;5.60;3.80;;;;;;;16.26;72.06;95398.85;106355;1275;24044;-76
2023/05/24 06:26:32;;;;;;;7.70;4.00;;;;;;;16.39;72.42;95392.42;106455;1275;22515;-74
2023/05/24 06:29:00;;;;;;;8.40;4.60;;;;;;;16.50;72.27;95399.73;106527;1275;22726;-79
2023/05/24 06:31:28;;;;;;;7.60;3.90;;;;;;;16.60;71.83;95395.72;106625;1275;22526;-81
2023/05/24 06:33:56;;;;;;;6.60;4.20;;;;;;;16.68;71.20;95394.11;106673;1275;22716;-75
2023/05/24 06:36:29;;;;;;;8.60;3.90;;;;;;;16.74;71.55;95399.54;106645;1275;22510;-79
2023/05/24 06:38:58;;;;;;;15.50;4.30;;;;;;;16.79;71.28;95401.66;106671;1275;23139;-78
2023/05/24 06:41:27;;;;;;;5.20;3.80;;;;;;;16.84;70.50;95399.98;106540;1263;22861;-74
2023/05/24 06:43:55;;;;;;;5.30;3.70;;;;;;;16.91;69.40;95397.57;106718;1275;22637;-75
2023/05/24 06:46:23;;;;;;;3.90;3.20;;;;;;;16.97;69.12;95398.67;106659;1275;25502;-74
2023/05/24 06:48:51;;;;;;;5.50;3.70;;;;;;;17.08;68.70;95399.23;106609;1275;25437;-72
2023/05/24 06:51:19;;;;;;;5.50;3.20;;;;;;;17.17;68.11;95400.95;106548;1275;25465;-78
2023/05/24 06:53:48;;;;;;;6.10;3.10;;;;;;;17.26;67.32;95397.15;106604;1275;24444;-80
2023/05/24 06:56:16;;;;;;;6.40;3.30;;;;;;;17.36;68.75;95397.02;106549;1275;22532;-78
2023/05/24 06:58:45;;;;;;;5.90;3.10;;;;;;;17.46;68.72;95401.17;106569;1275;22652;-76
2023/05/24 07:01:14;;;;;;;6.60;3.60;;;;;;;17.51;68.43;95402.48;106596;1275;22617;-77
2023/05/24 07:03:42;;;;;;;6.60;3.40;;;;;;;17.59;68.62;95404.45;106615;1275;22514;-78
2023/05/24 07:06:12;;;;;;;7.90;3.50;;;;;;;17.66;68.19;95406.23;106603;1275;22507;-76
2023/05/24 07:08:41;;;;;;;6.60;3.10;;;;;;;17.71;68.17;95406.67;106655;1275;22524;-78
2023/05/24 07:11:10;;;;;;;5.80;3.20;;;;;;;17.75;68.21;95405.61;106594;1275;22540;-75
2023/05/24 07:13:38;;;;;;;6.30;3.50;;;;;;;17.79;68.02;95404.18;106511;1275;25373;-76
2023/05/24 07:16:06;;;;;;;9.90;3.80;;;;;;;17.86;68.31;95407.03;106595;1275;25278;-75
2023/05/24 07:18:35;;;;;;;10.60;3.90;;;;;;;17.99;69.08;95403.90;106540;1263;24232;-76
2023/05/24 07:21:03;;;;;;;13.10;4.10;;;;;;;18.15;69.23;95402.73;106540;1260;25470;-75
2023/05/24 07:23:31;;;;;;;6.90;3.50;;;;;;;18.41;68.87;95402.98;106486;1275;24240;-74
2023/05/24 07:25:59;;;;;;;7.40;4.00;;;;;;;18.68;67.82;95397.27;106500;1275;22557;-75
2023/05/24 07:28:28;;;;;;;8.10;3.60;;;;;;;18.90;66.88;95397.91;106714;1275;22782;-75
2023/05/24 07:30:56;;;;;;;6.20;4.00;;;;;;;19.06;66.45;95398.80;106634;1275;24341;-75
2023/05/24 07:33:24;;;;;;;7.20;3.90;;;;;;;19.21;64.82;95398.55;106541;1275;22523;-78
2023/05/24 07:35:52;;;;;;;5.20;3.70;;;;;;;19.33;64.03;95399.79;106599;1275;22516;-77
2023/05/24 07:38:21;;;;;;;6.40;3.40;;;;;;;19.47;63.90;95401.71;106508;1275;22636;-76
2023/05/24 07:40:49;;;;;;;5.70;3.50;;;;;;;19.54;62.75;95405.59;106587;1275;22783;-76
2023/05/24 07:43:18;;;;;;;7.00;4.50;;;;;;;19.59;62.88;95403.35;106785;1275;22520;-76
2023/05/24 07:45:46;;;;;;;7.10;3.20;;;;;;;19.63;62.76;95405.23;106825;1275;25255;-77
2023/05/24 07:48:15;;;;;;;6.40;3.60;;;;;;;19.66;62.67;95408.09;106617;1275;24375;-77
2023/05/24 07:50:47;;;;;;;4.60;3.30;;;;;;;19.66;61.72;95412.73;106609;1275;22525;-77
2023/05/24 07:53:15;;;;;;;6.00;3.60;;;;;;;19.67;62.05;95412.18;106586;1275;22691;-77
2023/05/24 07:55:44;;;;;;;4.60;3.30;;;;;;;19.67;61.40;95413.05;106619;1275;22642;-77
2023/05/24 07:58:12;;;;;;;4.60;3.30;;;;;;;19.69;61.32;95410.98;106587;1275;25493;-77
2023/05/24 08:00:41;;;;;;;4.90;3.70;;;;;;;19.70;61.62;95412.41;106648;1275;25259;-77
2023/05/24 08:03:12;;;;;;;4.70;3.80;;;;;;;19.78;62.04;95413.89;106597;1275;23155;-77
2023/05/24 08:05:40;;;;;;;4.50;3.50;;;;;;;19.84;61.93;95414.94;106635;1275;23257;-76
2023/05/24 08:08:09;;;;;;;8.10;4.00;;;;;;;19.85;61.85;95413.11;106785;1275;22785;-76
2023/05/24 08:10:37;;;;;;;7.60;3.80;;;;;;;19.82;61.81;95413.64;106617;1275;22516;-77
2023/05/24 08:13:05;;;;;;;6.80;3.70;;;;;;;19.79;61.94;95417.05;106682;1275;22520;-76
2023/05/24 08:15:34;;;;;;;4.10;3.70;;;;;;;19.77;61.79;95412.12;106895;1275;22638;-76
2023/05/24 08:18:03;;;;;;;7.20;3.60;;;;;;;19.74;61.33;95419.10;106658;1275;22522;-76
2023/05/24 08:20:34;;;;;;;4.10;3.70;;;;;;;19.72;61.82;95420.29;106561;1275;22566;-76
2023/05/24 08:23:03;;;;;;;6.90;3.70;;;;;;;19.70;62.43;95421.84;106842;1275;25337;-76
2023/05/24 08:25:31;;;;;;;5.00;3.70;;;;;;;19.66;62.84;95427.39;106931;1275;25495;-76
2023/05/24 08:28:00;;;;;;;8.70;3.50;;;;;;;19.62;63.82;95424.38;106961;1275;22542;-76
2023/05/24 08:30:29;;;;;;;8.80;4.00;;;;;;;19.65;65.45;95425.48;106920;1275;22658;-76
2023/05/24 08:32:57;;;;;;;5.70;4.70;;;;;;;19.72;66.77;95425.85;106899;1275;25406;-75
2023/05/24 08:35:26;;;;;;;7.20;4.20;;;;;;;19.83;66.85;95425.89;106756;1275;22540;-75
2023/05/24 08:37:54;;;;;;;6.70;3.80;;;;;;;19.91;66.98;95423.66;106608;1275;24378;-76
2023/05/24 08:40:25;;;;;;;6.10;4.10;;;;;;;19.95;66.57;95424.29;106598;1275;22528;-73
2023/05/24 08:42:57;;;;;;;7.60;4.20;;;;;;;19.99;66.98;95421.75;106605;1275;24252;-76
2023/05/24 08:45:29;;;;;;;5.70;3.70;;;;;;;19.98;65.11;95426.43;106749;1275;25344;-76
2023/05/24 08:47:58;;;;;;;5.90;3.60;;;;;;;19.89;65.00;95432.88;106844;1275;22518;-76
2023/05/24 08:50:27;;;;;;;5.40;3.60;;;;;;;19.81;64.04;95430.30;106851;1275;25346;-76
2023/05/24 08:52:58;;;;;;;6.10;3.70;;;;;;;19.83;64.69;95435.16;106566;1275;25374;-76
2023/05/24 08:55:27;;;;;;;3.50;3.20;;;;;;;19.76;62.34;95437.35;106687;1275;22560;-76
2023/05/24 08:57:59;;;;;;;;;;;;;;;19.65;61.58;95438.34;106924;1275;22507;-76
2023/05/24 09:00:27;;;;;;;5.10;3.70;;;;;;;19.53;61.25;95440.45;106787;1275;25395;-76
2023/05/24 09:02:58;;;;;;;4.80;3.10;;;;;;;19.51;61.82;95441.62;106639;1275;25414;-76
2023/05/24 09:05:29;;;;;;;6.80;3.00;;;;;;;19.42;60.94;95448.34;106647;1275;25383;-76
2023/05/24 09:08:00;;;;;;;3.50;3.20;;;;;;;19.43;61.97;95450.23;106647;1275;24186;-77
2023/05/24 09:10:31;;;;;;;6.90;3.10;;;;;;;19.44;61.58;95451.09;106610;1275;22528;-76
2023/05/24 09:13:22;;;;;;;5.40;3.30;;;;;;;19.31;61.03;95455.02;106651;1275;25500;-77
2023/05/24 09:15:50;;;;;;;4.40;3.20;;;;;;;19.28;61.60;95458.02;106863;1275;22737;-76
2023/05/24 09:18:19;;;;;;;5.30;3.40;;;;;;;19.22;61.09;95456.59;106704;1275;25329;-77
2023/05/24 09:20:47;;;;;;;5.70;3.40;;;;;;;19.21;61.85;95460.01;106576;1254;25691;-76
2023/05/24 09:23:16;;;;;;;6.00;3.40;;;;;;;19.21;62.49;95460.54;106610;1275;22517;-76
2023/05/24 09:25:45;;;;;;;6.70;3.70;;;;;;;19.17;62.92;95463.09;106576;1275;22524;-76
2023/05/24 09:28:16;;;;;;;5.00;3.80;;;;;;;19.15;62.97;95463.95;106633;1275;22515;-77
2023/05/24 09:30:56;;;;;;;4.50;4.00;;;;;;;19.12;63.00;95467.14;106556;1275;25668;-76
2023/05/24 09:33:29;;;;;;;10.20;4.40;;;;;;;19.02;63.21;95470.52;106615;1270;25271;-76
2023/05/24 09:35:58;;;;;;;5.60;4.30;;;;;;;18.99;64.57;95477.63;106829;1275;22571;-77
2023/05/24 09:38:28;;;;;;;7.10;3.80;;;;;;;18.97;65.41;95482.89;106887;1275;22524;-77
2023/05/24 09:40:59;;;;;;;6.40;4.30;;;;;;;18.84;66.32;95489.11;106648;1275;22528;-76
2023/05/24 09:43:29;;;;;;;4.50;3.70;;;;;;;18.67;67.66;95491.23;106918;1275;22531;-76
2023/05/24 09:45:59;;;;;;;8.00;4.70;;;;;;;18.45;68.59;95498.04;106687;1275;25326;-76
2023/05/24 09:48:28;;;;;;;4.30;3.90;;;;;;;18.34;70.97;95505.88;106567;1275;22560;-76
2023/05/24 09:51:10;;;;;;;5.70;4.20;;;;;;;18.33;71.90;95503.11;106668;1275;22578;-77
2023/05/24 09:53:43;;;;;;;5.30;4.10;;;;;;;18.31;73.52;95508.91;106618;1275;22528;-77
2023/05/24 09:56:12;;;;;;;6.10;3.80;;;;;;;18.29;73.39;95510.45;106569;1275;22518;-77
2023/05/24 09:58:41;;;;;;;5.20;3.60;;;;;;;18.31;74.73;95513.73;106605;1275;25329;-77
2023/05/24 10:01:11;;;;;;;4.20;3.80;;;;;;;18.26;74.31;95513.23;106638;1276;24193;-77
2023/05/24 10:03:54;;;;;;;8.70;4.10;;;;;;;18.19;74.65;95515.21;106584;1275;22504;-77
2023/05/24 10:06:24;;;;;;;5.20;4.00;;;;;;;18.18;75.62;95518.98;106619;1275;22520;-77
2023/05/24 10:08:55;;;;;;;7.80;4.40;;;;;;;18.20;75.93;95517.48;106704;1275;25399;-77
2023/05/24 10:11:25;;;;;;;10.80;4.20;;;;;;;18.22;76.26;95515.63;106662;1275;22634;-77
2023/05/24 10:13:54;;;;;;;8.70;4.30;;;;;;;18.21;75.91;95516.17;106616;1275;22659;-76
2023/05/24 10:16:22;;;;;;;7.00;4.40;;;;;;;18.24;75.85;95514.77;106645;1275;24490;-77
2023/05/24 10:18:50;;;;;;;6.60;4.40;;;;;;;18.29;75.98;95510.80;106653;1275;22539;-76
2023/05/24 10:21:21;;;;;;;4.90;4.00;;;;;;;18.31;76.24;95512.45;106617;1275;24340;-77
2023/05/24 10:23:53;;;;;;;10.40;4.40;;;;;;;18.26;76.14;95512.73;106633;1275;25393;-77
2023/05/24 10:26:25;;;;;;;7.50;4.10;;;;;;;18.16;76.95;95512.17;106530;1275;24301;-77
2023/05/24 10:29:09;;;;;;;10.20;4.60;;;;;;;18.15;77.54;95512.19;106640;1275;23795;-77
2023/05/24 10:31:40;;;;;;;5.80;4.70;;;;;;;18.10;77.25;95510.13;106589;1275;25262;-77
2023/05/24 10:34:09;;;;;;;5.10;4.30;;;;;;;18.08;77.77;95509.00;106595;1275;22509;-77
2023/05/24 10:36:39;;;;;;;5.30;4.50;;;;;;;18.13;78.55;95510.00;106565;1275;25213;-77
2023/05/24 10:39:10;;;;;;;6.60;4.10;;;;;;;18.21;78.70;95511.20;106648;1275;24362;-77
2023/05/24 10:41:40;;;;;;;5.10;4.20;;;;;;;18.30;79.06;95505.05;106586;1271;25468;-77
2023/05/24 10:44:12;;;;;;;6.10;4.70;;;;;;;18.32;78.97;95506.34;106609;1275;22635;-77
2023/05/24 10:47:02;;;;;;;7.50;4.50;;;;;;;18.37;78.73;95507.92;106614;1275;25552;-74
2023/05/24 10:49:31;;;;;;;7.40;4.90;;;;;;;18.41;78.07;95509.33;106835;1275;25469;-77
2023/05/24 10:52:07;;;;;;;6.70;5.00;;;;;;;18.44;78.33;95510.04;106576;1275;22575;-76
2023/05/24 10:54:37;;;;;;;5.30;4.80;;;;;;;18.46;78.12;95517.27;106617;1260;24326;-77
2023/05/24 10:57:08;;;;;;;8.30;5.60;;;;;;;18.32;77.48;95520.44;106629;1265;22929;-77
2023/05/24 10:59:38;;;;;;;6.80;4.90;;;;;;;18.20;77.54;95523.35;106604;1275;25376;-77
2023/05/24 11:02:12;;;;;;;6.60;5.90;;;;;;;18.11;77.73;95525.41;106583;1275;22518;-77
2023/05/24 11:04:50;;;;;;;7.50;5.10;;;;;;;18.05;78.43;95526.25;106639;1275;22521;-76
2023/05/24 11:07:18;;;;;;;5.90;5.20;;;;;;;17.98;78.52;95531.39;106747;1275;22524;-76
2023/05/24 11:09:55;;;;;;;8.00;5.60;;;;;;;17.83;78.37;95530.85;106705;1275;22530;-76
2023/05/24 11:12:33;;;;;;;7.00;5.00;;;;;;;17.74;78.87;95535.51;106583;1275;22795;-76
2023/05/24 11:15:02;;;;;;;9.40;5.60;;;;;;;17.62;78.69;95539.27;106597;1275;22528;-75
2023/05/24 11:18:05;;;;;;;9.00;5.90;;;;;;;17.50;79.03;95545.19;106632;1275;22528;-75
2023/05/24 11:20:37;;;;;;;6.30;5.70;;;;;;;17.38;79.69;95545.76;106878;1275;24281;-74
2023/05/24 11:23:11;;;;;;;7.40;5.60;;;;;;;17.29;80.16;95547.04;106681;1275;22531;-76
2023/05/24 11:25:39;;;;;;;7.60;5.60;;;;;;;17.24;80.10;95549.42;106611;1275;22641;-76
2023/05/24 11:28:11;;;;;;;8.30;5.90;;;;;;;17.23;80.09;95551.90;106553;1275;22528;-76
2023/05/24 11:30:45;;;;;;;8.00;6.40;;;;;;;17.21;80.59;95550.58;106660;1275;22518;-77
2023/05/24 11:33:18;;;;;;;8.90;6.40;;;;;;;17.21;80.54;95556.10;106656;1275;24075;-77
2023/05/24 11:35:51;;;;;;;7.20;5.30;;;;;;;17.23;80.70;95557.98;106722;1275;25467;-74
2023/05/24 11:38:20;;;;;;;;;;;;;;;17.26;80.69;95556.95;106656;1275;24208;-77
2023/05/24 11:40:52;;;;;;;7.50;5.70;;;;;;;17.25;80.88;95560.70;106756;1275;22755;-77